Time;durP1;ratioP1;P1;durP2;ratioP2;P2;SDS_P1;SDS_P2;PMS_P1;PMS_P2;Temp;Humidity;BMP_temperature;BMP_pressure;BME280_temperature;BME280_humidity;BME280_pressure;Samples;Min_cycle;Max_cycle;Signal;HPM_P1;HPM_P2
2021/12/30 00:00:56;;;;;;;3.80;3.10;;;6.90;84.00;;;6.27;69.00;94438.59;5077483;28;20704;-84
2021/12/30 00:03:24;;;;;;;3.78;2.60;;;6.90;83.80;;;6.28;69.02;94440.22;5060673;28;20222;-84
2021/12/30 00:05:53;;;;;;;5.45;3.22;;;7.00;83.80;;;6.31;68.82;94455.47;5060568;28;20210;-83
2021/12/30 00:08:21;;;;;;;4.57;3.22;;;7.00;83.80;;;6.32;69.21;94449.28;5060730;28;20234;-84
2021/12/30 00:10:49;;;;;;;4.70;3.20;;;7.00;83.70;;;6.34;68.96;94444.72;5077533;28;20292;-84
2021/12/30 00:13:16;;;;;;;4.18;3.10;;;7.00;83.70;;;6.33;68.92;94449.09;5077464;28;20218;-83
2021/12/30 00:15:43;;;;;;;5.80;3.80;;;7.10;83.70;;;6.37;68.78;94452.97;5060745;28;20243;-84
2021/12/30 00:18:11;;;;;;;5.55;3.60;;;7.10;83.70;;;6.38;68.83;94454.59;5076812;28;20194;-85
2021/12/30 00:20:39;;;;;;;3.67;3.20;;;7.10;83.70;;;6.40;68.58;94454.41;5060611;28;20246;-84
2021/12/30 00:23:08;;;;;;;3.60;2.97;;;7.10;83.60;;;6.40;68.98;94463.03;5060708;28;20288;-84
2021/12/30 00:25:38;;;;;;;4.25;3.20;;;7.10;83.60;;;6.38;68.81;94454.59;5060335;28;20214;-83
2021/12/30 00:28:11;;;;;;;4.35;2.70;;;7.10;83.70;;;6.41;69.01;94469.06;5093930;28;20561;-84
2021/12/30 00:30:40;;;;;;;4.15;3.10;;;7.10;83.70;;;6.46;69.01;94471.13;5093656;28;20219;-83
2021/12/30 00:33:09;;;;;;;7.07;3.00;;;7.30;83.90;;;6.50;69.13;94488.84;5077164;28;20297;-83
2021/12/30 00:35:37;;;;;;;4.22;3.17;;;7.20;83.90;;;6.53;68.79;94479.84;5093149;28;20245;-83
2021/12/30 00:38:06;;;;;;;4.13;3.08;;;7.20;83.90;;;6.57;69.25;94488.94;5076609;28;20194;-83
2021/12/30 00:40:34;;;;;;;4.45;3.28;;;7.20;83.80;;;6.59;69.10;94486.94;5076913;28;20699;-83
2021/12/30 00:43:02;;;;;;;5.80;3.15;;;7.30;83.90;;;6.61;69.02;94481.59;5059837;28;20759;-83
2021/12/30 00:45:31;;;;;;;3.90;3.33;;;7.30;83.90;;;6.62;69.09;94481.41;5059624;28;20329;-84
2021/12/30 00:47:59;;;;;;;3.83;3.17;;;7.30;83.90;;;6.64;68.97;94491.63;5059370;28;20289;-84
2021/12/30 00:50:27;;;;;;;4.60;3.15;;;7.30;83.90;;;6.63;68.88;94495.22;5093394;28;20424;-84
2021/12/30 00:52:55;;;;;;;3.88;3.20;;;7.30;83.90;;;6.69;69.06;94505.75;5093256;28;20201;-83
2021/12/30 00:55:22;;;;;;;4.40;3.33;;;7.40;83.90;;;6.72;69.19;94512.41;5093405;28;20218;-84
2021/12/30 00:57:49;;;;;;;3.28;2.90;;;7.40;84.00;;;6.77;69.48;94509.28;5093282;28;20202;-83
2021/12/30 01:00:18;;;;;;;3.33;2.92;;;7.40;84.10;;;6.78;69.63;94514.31;5076056;28;20230;-84
2021/12/30 01:02:46;;;;;;;3.33;3.03;;;7.50;84.30;;;6.87;69.70;94521.06;5076266;28;20331;-83
2021/12/30 01:05:14;;;;;;;3.13;2.80;;;7.50;84.40;;;6.94;69.85;94522.97;5093124;28;20213;-84
2021/12/30 01:07:41;;;;;;;4.93;2.80;;;7.60;84.60;;;6.95;70.04;94499.31;5058906;28;20669;-84
2021/12/30 01:10:12;;;;;;;3.60;2.80;;;7.60;84.70;;;7.07;70.16;94512.72;5076297;28;20222;-84
2021/12/30 01:12:41;;;;;;;3.53;2.60;;;7.70;84.80;;;7.16;70.48;94518.66;5059629;28;20812;-83
2021/12/30 01:15:11;;;;;;;2.97;2.55;;;7.70;85.00;;;7.22;70.37;94517.94;5075893;28;20207;-84
2021/12/30 01:20:13;;;;;;;2.78;2.35;;;7.90;85.20;;;7.32;70.16;94508.03;5092836;28;20813;-84
2021/12/30 01:22:40;;;;;;;2.65;2.30;;;7.90;85.30;;;7.42;70.59;94517.38;5092488;28;20254;-83
2021/12/30 01:25:09;;;;;;;2.50;2.30;;;8.00;85.30;;;7.44;70.76;94518.81;5092114;28;20222;-82
2021/12/30 01:27:36;;;;;;;3.30;2.10;;;8.10;85.50;;;7.48;70.98;94519.25;5075631;28;20208;-83
2021/12/30 01:30:07;;;;;;;2.50;2.30;;;8.10;85.40;;;7.51;70.95;94518.91;5075607;28;20264;-83
2021/12/30 01:32:34;;;;;;;2.50;2.30;;;8.20;85.50;;;7.55;70.86;94519.34;5092626;28;20239;-82
2021/12/30 01:35:04;;;;;;;2.80;2.40;;;8.20;85.40;;;7.55;70.70;94509.69;5075231;28;20225;-82
2021/12/30 01:37:32;;;;;;;2.90;2.30;;;8.30;85.40;;;7.62;70.53;94504.56;5091761;28;20199;-82
2021/12/30 01:39:59;;;;;;;2.20;2.00;;;8.30;85.30;;;7.66;70.68;94506.59;5093635;28;20215;-82
2021/12/30 01:42:26;;;;;;;2.78;2.53;;;8.30;85.20;;;7.69;70.38;94502.84;5092109;28;20306;-83
2021/12/30 01:44:53;;;;;;;2.88;2.45;;;8.50;85.20;;;7.71;70.51;94498.22;5092146;28;20325;-82
2021/12/30 01:47:20;;;;;;;3.10;2.80;;;8.40;85.20;;;7.69;70.49;94495.81;5092020;28;20206;-82
2021/12/30 01:49:47;;;;;;;3.15;2.85;;;8.40;85.10;;;7.73;70.48;94491.03;5058100;28;20219;-82
2021/12/30 01:52:14;;;;;;;4.47;2.53;;;8.50;85.10;;;7.75;70.66;94494.28;5075114;28;20209;-82
2021/12/30 01:54:41;;;;;;;3.42;2.88;;;8.50;85.10;;;7.78;70.57;94491.28;5091789;28;20748;-81
2021/12/30 01:57:08;;;;;;;2.40;2.20;;;8.50;85.10;;;7.78;70.17;94496.50;5074250;28;20233;-82
2021/12/30 01:59:35;;;;;;;1.90;1.80;;;8.50;85.00;;;7.79;70.36;94492.91;5074550;28;20287;-82
2021/12/30 02:02:04;;;;;;;1.95;1.85;;;8.60;85.10;;;7.84;70.17;94500.19;5058729;28;20613;-82
2021/12/30 02:04:35;;;;;;;2.83;2.00;;;8.50;85.00;;;7.84;70.19;94506.22;5075576;28;20256;-82
2021/12/30 02:07:03;;;;;;;1.77;1.67;;;8.60;85.00;;;7.85;70.71;94509.66;5075060;28;20193;-82
2021/12/30 02:09:31;;;;;;;1.92;1.80;;;8.60;85.00;;;7.80;70.07;94504.16;5091933;28;20293;-82
2021/12/30 02:12:00;;;;;;;1.98;1.83;;;8.50;84.90;;;7.87;69.84;94518.09;5092026;28;20218;-82
2021/12/30 02:14:33;;;;;;;1.75;1.65;;;8.50;84.90;;;7.86;70.06;94521.72;5091311;28;20222;-83
2021/12/30 02:17:05;;;;;;;1.98;1.80;;;8.60;84.90;;;7.85;70.06;94518.28;5090538;28;20247;-83
2021/12/30 02:19:34;;;;;;;2.17;1.90;;;8.50;84.80;;;7.82;69.78;94520.44;5091691;28;20215;-83
2021/12/30 02:22:02;;;;;;;3.47;2.65;;;8.60;84.90;;;7.85;69.98;94525.31;5074939;28;20651;-83
2021/12/30 02:24:29;;;;;;;4.00;2.58;;;8.50;84.70;;;7.84;70.03;94526.31;5074519;28;20219;-82
2021/12/30 02:26:56;;;;;;;2.70;2.00;;;8.50;84.80;;;7.84;70.17;94515.84;5074754;28;20648;-83
2021/12/30 02:29:24;;;;;;;2.08;1.88;;;8.60;84.90;;;7.83;69.85;94517.63;5074574;28;20593;-83
2021/12/30 02:31:52;;;;;;;1.73;1.55;;;8.60;84.90;;;7.90;69.99;94519.50;5091429;28;20199;-83
2021/12/30 02:34:21;;;;;;;1.70;1.60;;;8.60;84.90;;;7.92;69.97;94527.97;5091528;28;20202;-82
2021/12/30 02:36:48;;;;;;;2.63;1.80;;;8.60;84.90;;;7.93;70.16;94527.00;5074939;28;20202;-83
2021/12/30 02:39:17;;;;;;;1.50;1.40;;;8.60;84.90;;;7.91;69.90;94524.56;5091662;28;20191;-82
2021/12/30 02:41:45;;;;;;;1.60;1.50;;;8.60;84.90;;;7.94;69.94;94518.97;5091862;28;20244;-83
2021/12/30 02:44:12;;;;;;;1.63;1.50;;;8.60;84.80;;;7.98;70.06;94525.47;5091608;28;20191;-83
2021/12/30 02:46:40;;;;;;;1.40;1.20;;;8.60;84.90;;;7.97;70.22;94516.00;5090847;28;20197;-81
2021/12/30 02:49:08;;;;;;;1.77;1.30;;;8.70;85.00;;;8.02;70.10;94518.06;5091615;28;20199;-82
2021/12/30 02:51:36;;;;;;;1.50;1.40;;;8.70;85.00;;;7.99;70.00;94521.81;5074491;28;20186;-83
2021/12/30 02:54:04;;;;;;;1.58;1.27;;;8.70;85.10;;;8.08;69.99;94521.72;5091405;28;20271;-82
2021/12/30 02:56:32;;;;;;;1.10;1.10;;;8.70;85.10;;;8.10;70.06;94536.19;5090640;28;20248;-82
2021/12/30 02:58:59;;;;;;;1.20;1.10;;;8.70;85.10;;;8.14;70.37;94542.69;5091171;28;20230;-82
2021/12/30 03:01:31;;;;;;;1.40;1.13;;;8.80;85.20;;;8.17;70.01;94544.91;5091159;28;20242;-82
2021/12/30 03:04:04;;;;;;;1.20;1.20;;;8.80;85.20;;;8.21;70.03;94549.78;5074174;28;20238;-81
2021/12/30 03:06:33;;;;;;;1.88;1.10;;;8.80;85.20;;;8.23;70.13;94548.59;5091203;28;20179;-82
2021/12/30 03:09:00;;;;;;;1.17;1.08;;;8.80;85.20;;;8.24;69.90;94541.56;5077729;28;20197;-83
2021/12/30 03:11:28;;;;;;;1.05;1.05;;;8.90;85.20;;;8.27;69.96;94543.81;5078510;28;20246;-82
2021/12/30 03:13:56;;;;;;;1.17;1.17;;;8.90;85.20;;;8.30;70.19;94554.69;5081609;28;20186;-82
2021/12/30 03:16:36;;;;;;;1.20;1.10;;;8.90;85.20;;;8.31;69.85;94551.09;5077486;28;20692;-83
2021/12/30 03:19:05;;;;;;;1.08;1.00;;;9.00;85.30;;;8.27;69.92;94549.03;5075926;28;20194;-82
2021/12/30 03:21:33;;;;;;;1.02;1.02;;;8.90;85.20;;;8.38;69.85;94566.03;5073933;28;20192;-81
2021/12/30 03:24:03;;;;;;;1.30;1.20;;;9.00;85.20;;;8.37;69.89;94570.44;5057556;28;20742;-81
2021/12/30 03:26:31;;;;;;;1.10;1.10;;;9.00;85.30;;;8.41;69.96;94579.53;5074105;28;20187;-83
2021/12/30 03:28:59;;;;;;;1.23;1.20;;;9.10;85.30;;;8.40;70.05;94564.84;5074384;28;20665;-81
2021/12/30 03:31:27;;;;;;;1.10;1.10;;;9.00;85.20;;;8.45;70.14;94572.13;5057726;28;20250;-81
2021/12/30 03:33:54;;;;;;;1.20;1.20;;;9.10;85.30;;;8.45;70.26;94570.31;5093991;28;20195;-82
2021/12/30 03:36:21;;;;;;;1.20;1.20;;;9.10;85.30;;;8.48;70.13;94571.78;5077634;28;20254;-82
2021/12/30 03:38:53;;;;;;;1.35;1.20;;;9.10;85.30;;;8.50;70.05;94554.09;5081669;28;20207;-82
2021/12/30 03:41:25;;;;;;;1.13;1.10;;;9.10;85.30;;;8.54;70.03;94559.78;5090974;28;20230;-82
2021/12/30 03:43:53;;;;;;;1.20;1.20;;;9.10;85.30;;;8.53;69.98;94558.94;5076672;28;20321;-82
2021/12/30 03:46:21;;;;;;;1.05;1.05;;;9.10;85.40;;;8.60;69.80;94574.69;5060834;28;20669;-81
2021/12/30 03:48:48;;;;;;;1.00;1.00;;;9.30;85.40;;;8.62;69.90;94585.78;5060386;28;20203;-82
2021/12/30 03:51:24;;;;;;;1.02;1.02;;;9.20;85.30;;;8.63;69.78;94590.81;5059578;28;20600;-82
2021/12/30 03:53:55;;;;;;;1.33;1.23;;;9.20;85.30;;;8.63;69.93;94584.78;5078488;28;20204;-82
2021/12/30 03:56:27;;;;;;;1.00;1.00;;;9.20;85.30;;;8.65;69.89;94586.22;5073731;28;20246;-82
2021/12/30 03:58:56;;;;;;;1.08;1.00;;;9.30;85.30;;;8.67;69.80;94595.66;5072349;28;20217;-81
2021/12/30 04:01:27;;;;;;;1.30;1.20;;;9.20;85.20;;;8.68;69.65;94598.09;5078778;28;20207;-82
2021/12/30 04:03:55;;;;;;;1.25;1.20;;;9.30;85.20;;;8.67;69.60;94601.72;5085167;28;20218;-81
2021/12/30 04:06:23;;;;;;;1.23;1.13;;;9.30;85.20;;;8.67;69.97;94601.72;5066531;28;20206;-82
2021/12/30 04:08:50;;;;;;;1.30;1.20;;;9.30;85.10;;;8.66;69.60;94602.72;5077274;28;20220;-81
2021/12/30 04:11:17;;;;;;;1.23;1.23;;;9.30;85.10;;;8.65;69.80;94612.38;5058017;28;20724;-81
2021/12/30 04:13:44;;;;;;;1.38;1.30;;;9.30;85.10;;;8.65;69.80;94607.13;5075707;28;20191;-82
2021/12/30 04:16:13;;;;;;;1.20;1.20;;;9.30;85.10;;;8.65;69.83;94608.94;5081050;28;20229;-82
2021/12/30 04:18:40;;;;;;;1.23;1.13;;;9.30;85.10;;;8.64;69.67;94617.75;5083642;28;20561;-83
2021/12/30 04:21:07;;;;;;;1.20;1.20;;;9.30;85.10;;;8.68;70.18;94621.63;5058219;28;20586;-81
2021/12/30 04:23:35;;;;;;;1.35;1.25;;;9.30;85.20;;;8.70;70.14;94621.44;5090518;28;20288;-82
2021/12/30 04:26:02;;;;;;;1.38;1.30;;;9.30;85.20;;;8.73;70.07;94634.94;5073778;28;20211;-82
2021/12/30 04:28:29;;;;;;;1.30;1.30;;;9.30;85.20;;;8.72;70.18;94640.38;5090655;28;20285;-81
2021/12/30 04:30:57;;;;;;;1.48;1.38;;;9.40;85.30;;;8.71;70.26;94636.13;5099808;28;20211;-82
2021/12/30 04:33:24;;;;;;;1.50;1.40;;;9.40;85.30;;;8.78;70.12;94647.47;5072778;28;20717;-82
2021/12/30 04:35:56;;;;;;;1.35;1.35;;;9.40;85.30;;;8.79;70.09;94652.50;5089440;28;20238;-81
2021/12/30 04:38:25;;;;;;;1.38;1.27;;;9.40;85.30;;;8.77;69.88;94654.50;5073466;28;20203;-83
2021/12/30 04:40:52;;;;;;;1.60;1.50;;;9.40;86.10;;;8.78;70.11;94653.50;5072360;28;20218;-82
2021/12/30 04:43:19;;;;;;;1.50;1.40;;;9.40;85.30;;;8.80;70.20;94654.13;5072537;28;20245;-82
2021/12/30 04:45:47;;;;;;;1.50;1.40;;;9.40;85.30;;;8.84;70.27;94654.56;5072492;28;20305;-83
2021/12/30 04:48:16;;;;;;;1.90;1.80;;;9.40;85.40;;;8.83;70.15;94650.31;5074718;28;20203;-83
2021/12/30 04:50:45;;;;;;;1.27;1.27;;;9.50;85.40;;;8.87;70.05;94650.75;5075435;28;20275;-83
2021/12/30 04:53:17;;;;;;;1.40;1.30;;;9.50;85.50;;;8.86;70.31;94636.91;5076273;28;20186;-83
2021/12/30 04:55:45;;;;;;;1.30;1.30;;;9.50;85.50;;;8.87;70.69;94648.16;5059609;28;20214;-83
2021/12/30 04:58:14;;;;;;;1.50;1.40;;;9.60;85.60;;;8.83;70.55;94632.03;5056132;28;20571;-82
2021/12/30 05:00:41;;;;;;;1.10;1.10;;;9.50;85.60;;;8.90;70.63;94643.34;5072391;28;20254;-82
2021/12/30 05:03:13;;;;;;;1.20;1.20;;;9.50;85.50;;;8.91;70.47;94650.22;5075153;28;20206;-82
2021/12/30 05:05:44;;;;;;;1.10;1.10;;;9.60;85.60;;;8.91;70.54;94654.63;5092804;28;20214;-83
2021/12/30 05:08:16;;;;;;;1.00;1.00;;;9.60;85.50;;;8.94;70.57;94667.34;5076167;28;20709;-82
2021/12/30 05:10:43;;;;;;;1.30;1.20;;;9.60;85.60;;;8.93;70.40;94666.50;5092539;28;20227;-83
2021/12/30 05:13:12;;;;;;;1.00;1.00;;;9.60;85.50;;;8.97;70.45;94682.63;5074382;28;20222;-82
2021/12/30 05:15:39;;;;;;;3.17;2.97;;;9.60;85.60;;;9.00;70.65;94686.72;5075230;28;20263;-81
2021/12/30 05:18:10;;;;;;;1.50;1.40;;;9.60;85.60;;;8.97;70.79;94691.31;5080214;28;20197;-83
2021/12/30 05:20:39;;;;;;;0.93;0.93;;;9.70;85.70;;;9.01;70.86;94711.84;5075456;28;20245;-83
2021/12/30 05:23:07;;;;;;;0.93;0.93;;;9.70;85.80;;;9.02;71.00;94721.31;5058403;28;20238;-82
2021/12/30 05:25:34;;;;;;;0.80;0.80;;;9.70;85.80;;;9.05;70.68;94716.53;5058732;28;20249;-82
2021/12/30 05:28:02;;;;;;;0.80;0.80;;;9.70;85.80;;;9.07;70.68;94713.72;5058719;28;20233;-83
2021/12/30 05:30:29;;;;;;;0.82;0.82;;;9.70;85.80;;;9.09;70.80;94725.63;5074864;28;20761;-82
2021/12/30 05:32:57;;;;;;;0.93;0.93;;;9.70;85.90;;;9.11;71.48;94721.00;5074778;28;20251;-82
2021/12/30 05:35:25;;;;;;;0.93;0.93;;;9.80;86.20;;;9.14;70.97;94719.81;5091828;28;20295;-82
2021/12/30 05:37:52;;;;;;;0.90;0.90;;;9.80;86.30;;;9.16;71.49;94727.50;5075394;28;20190;-82
2021/12/30 05:40:22;;;;;;;0.75;0.75;;;9.80;86.40;;;9.20;71.64;94726.91;5091145;28;20704;-81
2021/12/30 05:42:49;;;;;;;0.80;0.80;;;9.80;86.40;;;9.23;71.58;94725.75;5091523;28;20187;-80
2021/12/30 05:45:17;;;;;;;0.80;0.80;;;9.90;86.50;;;9.27;71.42;94722.56;5099141;28;20675;-82
2021/12/30 05:47:48;;;;;;;0.80;0.80;;;9.90;86.60;;;9.31;71.64;94730.03;5095406;28;20186;-81
2021/12/30 05:50:20;;;;;;;0.80;0.80;;;9.90;86.60;;;9.35;71.38;94731.28;5080037;28;20299;-80
2021/12/30 05:52:47;;;;;;;0.80;0.80;;;10.00;85.40;;;9.36;71.39;94738.97;5091573;28;20644;-81
2021/12/30 05:55:16;;;;;;;0.90;0.90;;;10.00;85.40;;;9.40;71.69;94750.66;5058701;28;20210;-81
2021/12/30 05:57:44;;;;;;;0.93;0.93;;;10.00;85.40;;;9.43;71.47;94746.84;5091590;28;20226;-81
2021/12/30 06:00:15;;;;;;;0.80;0.80;;;10.00;85.40;;;9.40;71.84;94748.03;5074797;28;20224;-80
2021/12/30 06:02:44;;;;;;;1.00;1.00;;;10.10;85.50;;;9.47;71.82;94763.78;5108921;28;20189;-81
2021/12/30 06:05:12;;;;;;;0.93;0.93;;;10.10;85.50;;;9.49;71.72;94759.19;5095205;28;20217;-82
2021/12/30 06:07:39;;;;;;;0.90;0.90;;;10.10;85.50;;;9.52;71.98;94760.63;5074813;28;20621;-81
2021/12/30 06:10:07;;;;;;;0.90;0.90;;;10.20;85.70;;;9.51;72.08;94774.69;5057985;28;20268;-81
2021/12/30 06:12:34;;;;;;;0.95;0.95;;;10.20;85.70;;;9.52;71.98;94789.41;5074710;28;20212;-82
2021/12/30 06:15:02;;;;;;;1.00;1.00;;;10.20;85.80;;;9.54;71.88;94785.59;5088692;28;20218;-82
2021/12/30 06:17:29;;;;;;;1.00;1.00;;;10.30;85.80;;;9.54;71.89;94775.13;5094574;28;20647;-81
2021/12/30 06:19:56;;;;;;;1.15;1.05;;;10.20;85.70;;;9.58;72.08;94770.34;5095007;28;20206;-82
2021/12/30 06:22:24;;;;;;;1.38;1.27;;;10.20;85.70;;;9.57;72.51;94781.81;5095177;28;20201;-81
2021/12/30 06:24:51;;;;;;;1.27;0.98;;;10.30;85.90;;;9.60;72.28;94791.91;5078092;28;20301;-81
2021/12/30 06:27:18;;;;;;;3.03;2.05;;;10.30;86.80;;;9.53;72.33;94793.66;5080318;28;20289;-82
2021/12/30 06:29:45;;;;;;;2.25;1.77;;;10.30;86.00;;;9.62;72.18;94808.25;5057935;28;20218;-81
2021/12/30 06:32:12;;;;;;;4.30;3.15;;;10.30;85.90;;;9.68;72.16;94825.84;5074603;28;20248;-81
2021/12/30 06:34:39;;;;;;;1.65;1.55;;;10.30;86.00;;;9.69;72.29;94824.00;5074671;28;20226;-81
2021/12/30 06:37:07;;;;;;;1.30;1.20;;;10.40;86.00;;;9.69;72.54;94834.50;5057967;28;20241;-82
2021/12/30 06:39:34;;;;;;;1.30;1.20;;;10.40;86.00;;;9.73;72.49;94841.00;5091029;28;20267;-80
2021/12/30 06:42:01;;;;;;;1.25;1.15;;;10.40;86.00;;;9.70;72.50;94851.81;5075812;28;20680;-82
2021/12/30 06:44:28;;;;;;;1.10;1.10;;;10.40;86.00;;;9.75;72.23;94847.66;5078148;28;20321;-81
2021/12/30 06:46:59;;;;;;;1.27;1.25;;;10.40;85.90;;;9.76;72.09;94851.91;5061890;28;20715;-81
2021/12/30 06:49:34;;;;;;;1.20;1.20;;;10.40;85.80;;;9.78;71.96;94841.22;5061911;28;20300;-81
2021/12/30 06:52:10;;;;;;;1.30;1.20;;;10.40;85.80;;;9.78;72.00;94865.59;5062872;28;20535;-82
2021/12/30 06:54:39;;;;;;;1.30;1.20;;;10.50;85.80;;;9.79;71.75;94855.94;5078199;28;20214;-80
2021/12/30 06:57:11;;;;;;;1.20;1.20;;;10.50;85.70;;;9.77;71.94;94857.94;5078773;28;20293;-81
2021/12/30 06:59:39;;;;;;;1.15;1.10;;;10.50;85.70;;;9.77;71.55;94863.97;5077956;28;20230;-81
2021/12/30 07:02:08;;;;;;;1.27;1.20;;;10.50;85.60;;;9.79;71.94;94879.53;5075740;28;20281;-80
2021/12/30 07:04:35;;;;;;;1.13;1.13;;;10.50;85.60;;;9.73;72.38;94882.88;5080668;28;20351;-81
2021/12/30 07:07:03;;;;;;;1.20;1.10;;;10.50;85.70;;;9.65;72.17;94877.78;5094743;28;20659;-82
2021/12/30 07:09:30;;;;;;;1.70;1.60;;;10.40;85.70;;;9.73;72.29;94894.16;5084099;28;20250;-83
2021/12/30 07:11:58;;;;;;;1.67;1.58;;;10.50;85.80;;;9.75;72.03;94893.97;5094400;28;20302;-81
2021/12/30 07:14:25;;;;;;;1.95;1.67;;;10.40;85.60;;;9.76;72.07;94896.44;5093218;28;20240;-81
2021/12/30 07:16:52;;;;;;;2.20;1.58;;;10.50;85.70;;;9.77;71.95;94903.25;5077707;28;20372;-81
2021/12/30 07:19:20;;;;;;;2.38;1.73;;;10.50;85.70;;;9.76;72.30;94911.31;5073608;28;20246;-81
2021/12/30 07:21:50;;;;;;;1.77;1.67;;;10.50;85.70;;;9.72;72.32;94907.47;5074551;28;20266;-81
2021/12/30 07:24:20;;;;;;;1.58;1.48;;;10.50;85.80;;;9.76;72.27;94911.31;5074890;28;20266;-81
2021/12/30 07:26:50;;;;;;;1.45;1.35;;;10.50;85.80;;;9.76;72.68;94929.66;5083108;28;20251;-81
2021/12/30 07:29:18;;;;;;;1.60;1.50;;;10.50;85.80;;;9.78;72.28;94923.22;5092665;28;20204;-81
2021/12/30 07:31:46;;;;;;;1.70;1.60;;;10.50;86.60;;;9.77;72.46;94931.28;5077073;28;20210;-82
2021/12/30 07:34:14;;;;;;;1.50;1.40;;;10.50;85.90;;;9.70;72.49;94917.28;5094054;28;20243;-83
2021/12/30 07:36:41;;;;;;;1.60;1.50;;;10.50;85.90;;;9.78;72.54;94930.28;5095221;28;20221;-83
2021/12/30 07:39:09;;;;;;;1.50;1.40;;;10.50;85.90;;;9.79;72.30;94929.28;5075988;28;20316;-83
2021/12/30 07:41:37;;;;;;;1.90;1.73;;;10.50;85.90;;;9.81;72.41;94929.91;5060784;28;20233;-83
2021/12/30 07:44:04;;;;;;;1.70;1.60;;;10.50;85.90;;;9.80;72.24;94922.22;5090307;28;20642;-82
2021/12/30 07:46:32;;;;;;;2.03;1.30;;;10.50;85.90;;;9.83;72.32;94937.59;5063711;28;20198;-82
2021/12/30 07:48:59;;;;;;;1.70;1.50;;;10.60;86.00;;;9.82;72.43;94949.84;5076546;28;20446;-82
2021/12/30 07:51:28;;;;;;;1.60;1.50;;;10.50;85.90;;;9.85;72.26;94948.66;5093442;28;20218;-82
2021/12/30 07:53:55;;;;;;;1.58;1.40;;;10.60;86.00;;;9.85;72.17;94946.06;5098247;28;20232;-81
2021/12/30 07:56:22;;;;;;;3.72;1.70;;;10.60;86.00;;;9.86;72.31;94956.38;5077013;28;20210;-81
2021/12/30 07:58:54;;;;;;;1.95;1.70;;;10.60;86.00;;;9.91;72.21;94945.31;5078178;28;20210;-81
2021/12/30 08:01:24;;;;;;;1.98;1.60;;;10.60;86.00;;;9.91;72.57;94942.69;5093625;28;20214;-83
2021/12/30 08:03:51;;;;;;;1.60;1.50;;;10.60;86.00;;;9.87;72.61;94937.00;5075300;28;20703;-82
2021/12/30 08:06:18;;;;;;;1.77;1.50;;;10.60;86.10;;;9.93;72.41;94930.22;5093458;28;20202;-82
2021/12/30 08:08:45;;;;;;;1.90;1.52;;;10.60;86.10;;;9.97;72.51;94946.38;5093089;28;20194;-81
2021/12/30 08:11:13;;;;;;;1.30;1.20;;;10.60;86.10;;;10.00;72.47;94946.81;5078742;28;20217;-82
2021/12/30 08:13:40;;;;;;;1.50;1.40;;;10.70;86.20;;;10.03;72.45;94950.88;5079173;28;20234;-83
2021/12/30 08:16:07;;;;;;;1.40;1.30;;;10.70;86.20;;;10.05;72.83;94944.44;5059265;28;20309;-82
2021/12/30 08:18:35;;;;;;;1.77;1.67;;;10.70;86.20;;;10.08;72.51;94938.00;5092545;28;20206;-83
2021/12/30 08:21:02;;;;;;;2.03;1.27;;;10.80;86.30;;;10.12;72.51;94939.28;5072262;28;20673;-83
2021/12/30 08:23:29;;;;;;;1.95;1.60;;;10.80;86.30;;;10.18;72.37;94941.13;5081844;28;20242;-83
2021/12/30 08:25:56;;;;;;;4.13;1.63;;;10.80;86.20;;;10.20;72.25;94946.97;5056550;28;20249;-82
2021/12/30 08:28:25;;;;;;;2.10;1.85;;;10.90;86.30;;;10.22;72.35;94949.44;5087945;28;20221;-82
2021/12/30 08:30:52;;;;;;;2.00;1.80;;;10.80;86.20;;;10.23;72.46;94948.44;5059905;28;20218;-82
2021/12/30 08:33:20;;;;;;;1.85;1.67;;;10.90;86.40;;;10.25;72.26;94941.19;5059744;28;20659;-82
2021/12/30 08:35:49;;;;;;;1.70;1.60;;;10.90;86.30;;;10.24;72.05;94942.19;5075342;28;20697;-82
2021/12/30 08:38:17;;;;;;;1.77;1.67;;;10.90;86.30;;;10.32;72.40;94963.03;5071826;28;20195;-83
2021/12/30 08:40:47;;;;;;;2.28;1.88;;;10.90;86.40;;;10.34;72.33;94963.66;5075969;28;20747;-81
2021/12/30 08:43:19;;;;;;;1.88;1.77;;;11.00;86.50;;;10.33;72.35;94946.28;5105212;28;20198;-81
2021/12/30 08:45:47;;;;;;;1.85;1.75;;;11.00;86.40;;;10.37;72.36;94950.19;5072533;28;20222;-82
2021/12/30 08:48:15;;;;;;;2.20;1.63;;;11.00;86.40;;;10.45;72.26;94954.50;5074907;28;20195;-82
2021/12/30 08:50:43;;;;;;;2.15;1.95;;;11.10;86.50;;;10.49;72.19;94952.31;5092631;28;20214;-83
2021/12/30 08:53:10;;;;;;;1.95;1.85;;;11.10;86.40;;;10.45;72.04;94949.25;5092058;28;20289;-83
2021/12/30 08:55:37;;;;;;;3.20;2.15;;;11.10;86.40;;;10.56;72.23;94956.59;5091619;28;20233;-82
2021/12/30 08:58:04;;;;;;;2.22;1.77;;;11.10;86.30;;;10.58;72.23;94964.25;5109065;28;20221;-82
2021/12/30 09:00:38;;;;;;;3.00;2.00;;;11.10;86.30;;;10.60;72.04;94953.59;5071526;28;20266;-81
2021/12/30 09:03:06;;;;;;;3.13;1.95;;;11.20;86.40;;;10.68;72.18;94953.44;5062203;28;20198;-82
2021/12/30 09:05:35;;;;;;;2.67;2.17;;;11.20;86.50;;;10.72;72.17;94965.19;5074381;28;20218;-82
2021/12/30 09:08:03;;;;;;;2.83;2.13;;;11.20;86.40;;;10.78;72.07;94971.47;5062508;28;20306;-82
2021/12/30 09:10:40;;;;;;;3.00;2.25;;;11.30;86.50;;;10.79;71.99;94965.22;5074609;28;20210;-80
2021/12/30 09:13:09;;;;;;;4.53;2.30;;;11.30;86.40;;;10.81;71.99;94969.25;5075116;28;20194;-82
2021/12/30 09:15:36;;;;;;;3.60;2.10;;;11.40;86.50;;;10.84;72.19;94973.31;5058317;28;20224;-81
2021/12/30 09:18:05;;;;;;;2.50;2.30;;;11.40;86.50;;;10.93;72.17;94981.88;5092799;28;20218;-82
2021/12/30 09:20:38;;;;;;;3.38;2.30;;;11.40;86.50;;;10.97;72.02;94975.22;5076504;28;20232;-83
2021/12/30 09:23:07;;;;;;;2.50;2.20;;;11.50;86.60;;;11.01;71.98;94981.69;5088632;28;20237;-83
2021/12/30 09:25:36;;;;;;;3.15;2.28;;;11.50;86.60;;;11.07;72.05;94972.25;5092154;28;20312;-83
2021/12/30 09:28:04;;;;;;;2.35;2.00;;;11.50;86.60;;;11.14;71.94;94973.91;5058662;28;20660;-83
2021/12/30 09:30:31;;;;;;;2.35;2.00;;;11.60;86.60;;;11.17;71.78;94975.38;5075498;28;20210;-84
2021/12/30 09:33:01;;;;;;;2.33;2.00;;;11.70;86.60;;;11.25;71.77;94984.88;5091524;28;20723;-83
2021/12/30 09:35:29;;;;;;;3.83;2.60;;;11.70;86.50;;;11.25;72.06;94972.56;5092467;28;20233;-83
2021/12/30 09:37:57;;;;;;;3.55;2.47;;;11.70;86.40;;;11.31;71.39;94984.09;5074651;28;20227;-83
2021/12/30 09:40:26;;;;;;;2.97;1.90;;;11.80;86.40;;;11.32;71.42;94980.47;5091687;28;20631;-83
2021/12/30 09:43:01;;;;;;;2.55;1.90;;;11.80;86.10;;;11.35;71.36;94993.19;5091721;28;20271;-84
2021/12/30 09:45:34;;;;;;;2.90;1.80;;;11.80;86.00;;;11.32;71.45;94986.53;5074885;28;20725;-83
2021/12/30 09:48:07;;;;;;;1.92;1.80;;;11.90;86.10;;;11.35;71.44;94972.19;5075642;28;20197;-84
2021/12/30 09:50:42;;;;;;;3.08;2.08;;;11.90;86.10;;;11.40;71.20;94988.19;5105256;28;20214;-83
2021/12/30 09:53:11;;;;;;;3.00;2.10;;;11.90;86.10;;;11.43;71.52;94987.00;5074222;28;20202;-83
2021/12/30 09:55:39;;;;;;;3.50;2.22;;;11.90;86.20;;;11.46;71.69;94983.97;5092012;28;20244;-83
2021/12/30 09:58:07;;;;;;;2.85;2.15;;;12.00;86.30;;;11.48;71.87;94984.59;5074437;28;20190;-83
2021/12/30 10:00:35;;;;;;;2.40;2.15;;;12.00;86.30;;;11.54;71.60;94983.81;5056613;28;20222;-83
2021/12/30 10:03:04;;;;;;;2.30;1.98;;;12.00;86.30;;;11.60;71.32;94983.03;5092357;28;20201;-83
2021/12/30 10:05:37;;;;;;;2.58;2.33;;;12.00;86.90;;;11.66;71.52;94986.69;5078269;28;20244;-83
2021/12/30 10:08:17;;;;;;;2.35;1.83;;;12.10;86.20;;;11.67;71.36;94983.06;5069993;28;20562;-83
2021/12/30 10:10:56;;;;;;;2.55;1.90;;;12.10;86.20;;;11.72;71.59;94985.91;5071016;28;20219;-83
2021/12/30 10:13:29;;;;;;;3.10;1.95;;;12.10;86.30;;;11.80;71.50;94974.41;5071638;28;20228;-83
2021/12/30 10:16:18;;;;;;;2.60;1.80;;;12.20;86.40;;;11.86;71.46;94976.22;5055652;28;20218;-83
2021/12/30 10:18:57;;;;;;;2.22;1.85;;;12.20;86.40;;;11.86;71.40;94970.97;5076129;28;20204;-83
2021/12/30 10:21:35;;;;;;;2.42;1.90;;;12.30;86.40;;;11.93;71.53;94982.31;5062156;28;20224;-83
2021/12/30 10:24:12;;;;;;;3.65;2.08;;;12.40;86.40;;;11.93;71.05;94978.88;5095295;28;20288;-84
2021/12/30 10:26:57;;;;;;;3.30;2.40;;;12.40;86.10;;;11.95;71.07;94990.00;5079246;28;20655;-83
2021/12/30 10:29:26;;;;;;;2.38;1.98;;;12.40;85.90;;;11.95;71.18;94976.84;5078599;28;20221;-83
2021/12/30 10:31:54;;;;;;;2.88;2.20;;;12.40;85.80;;;11.98;71.01;94979.13;5071888;28;20677;-84
2021/12/30 10:34:21;;;;;;;3.33;2.05;;;12.50;85.90;;;11.94;71.02;94988.41;5059127;28;20205;-85
2021/12/30 10:36:50;;;;;;;3.33;2.03;;;12.50;85.90;;;11.88;71.07;94968.97;5061215;28;20290;-84